sensor_id;sensor_type;location;lat;lon;timestamp;P1;durP1;ratioP1;P2;durP2;ratioP2
78382;SDS011;67668;52.294;4.692;2023-04-03T00:03:01;0.82;;;0.43;;
78382;SDS011;67668;52.294;4.692;2023-04-03T00:05:27;3.93;;;0.53;;
78382;SDS011;67668;52.294;4.692;2023-04-03T00:07:52;1.45;;;0.45;;
78382;SDS011;67668;52.294;4.692;2023-04-03T00:10:17;1.20;;;0.60;;
78382;SDS011;67668;52.294;4.692;2023-04-03T00:15:08;1.70;;;0.43;;
78382;SDS011;67668;52.294;4.692;2023-04-03T00:17:35;1.40;;;0.50;;
78382;SDS011;67668;52.294;4.692;2023-04-03T00:20:01;2.37;;;0.63;;
78382;SDS011;67668;52.294;4.692;2023-04-03T00:22:27;3.47;;;0.52;;
78382;SDS011;67668;52.294;4.692;2023-04-03T00:24:53;2.33;;;0.43;;
78382;SDS011;67668;52.294;4.692;2023-04-03T00:27:19;1.27;;;0.43;;
78382;SDS011;67668;52.294;4.692;2023-04-03T00:29:45;3.28;;;0.60;;
78382;SDS011;67668;52.294;4.692;2023-04-03T00:34:36;1.13;;;0.40;;
78382;SDS011;67668;52.294;4.692;2023-04-03T00:37:02;2.42;;;0.63;;
78382;SDS011;67668;52.294;4.692;2023-04-03T00:39:27;1.40;;;0.60;;
78382;SDS011;67668;52.294;4.692;2023-04-03T00:41:53;1.48;;;0.52;;
78382;SDS011;67668;52.294;4.692;2023-04-03T00:44:22;4.22;;;0.68;;
78382;SDS011;67668;52.294;4.692;2023-04-03T00:47:09;1.58;;;0.40;;
78382;SDS011;67668;52.294;4.692;2023-04-03T00:49:37;1.20;;;0.60;;
78382;SDS011;67668;52.294;4.692;2023-04-03T00:52:03;4.13;;;1.00;;
78382;SDS011;67668;52.294;4.692;2023-04-03T00:54:32;2.50;;;0.80;;
78382;SDS011;67668;52.294;4.692;2023-04-03T00:57:01;2.67;;;0.50;;
78382;SDS011;67668;52.294;4.692;2023-04-03T00:59:29;1.95;;;0.50;;
78382;SDS011;67668;52.294;4.692;2023-04-03T01:01:58;2.03;;;0.50;;
78382;SDS011;67668;52.294;4.692;2023-04-03T01:04:32;1.42;;;0.60;;
78382;SDS011;67668;52.294;4.692;2023-04-03T01:07:00;0.43;;;0.28;;
78382;SDS011;67668;52.294;4.692;2023-04-03T01:09:28;2.05;;;0.77;;
78382;SDS011;67668;52.294;4.692;2023-04-03T01:11:54;2.58;;;0.75;;
78382;SDS011;67668;52.294;4.692;2023-04-03T01:14:19;2.40;;;0.70;;
78382;SDS011;67668;52.294;4.692;2023-04-03T01:16:54;4.00;;;0.65;;
78382;SDS011;67668;52.294;4.692;2023-04-03T01:19:20;1.73;;;0.60;;
78382;SDS011;67668;52.294;4.692;2023-04-03T01:24:36;1.98;;;0.70;;
78382;SDS011;67668;52.294;4.692;2023-04-03T01:27:05;1.55;;;0.47;;
78382;SDS011;67668;52.294;4.692;2023-04-03T01:29:33;5.25;;;0.90;;
78382;SDS011;67668;52.294;4.692;2023-04-03T01:31:59;2.20;;;1.00;;
78382;SDS011;67668;52.294;4.692;2023-04-03T01:34:26;2.33;;;0.75;;
78382;SDS011;67668;52.294;4.692;2023-04-03T01:36:53;3.53;;;0.93;;
78382;SDS011;67668;52.294;4.692;2023-04-03T01:39:19;3.30;;;0.70;;
78382;SDS011;67668;52.294;4.692;2023-04-03T01:44:11;3.45;;;0.80;;
78382;SDS011;67668;52.294;4.692;2023-04-03T01:46:37;1.50;;;0.68;;
78382;SDS011;67668;52.294;4.692;2023-04-03T01:49:03;1.30;;;0.68;;
78382;SDS011;67668;52.294;4.692;2023-04-03T01:51:28;1.23;;;0.40;;
78382;SDS011;67668;52.294;4.692;2023-04-03T01:53:54;1.73;;;0.65;;
78382;SDS011;67668;52.294;4.692;2023-04-03T01:56:20;1.90;;;0.70;;
78382;SDS011;67668;52.294;4.692;2023-04-03T01:58:45;2.00;;;1.00;;
78382;SDS011;67668;52.294;4.692;2023-04-03T02:01:10;2.35;;;1.10;;
78382;SDS011;67668;52.294;4.692;2023-04-03T02:03:36;2.90;;;0.63;;
78382;SDS011;67668;52.294;4.692;2023-04-03T02:06:01;1.63;;;0.80;;
78382;SDS011;67668;52.294;4.692;2023-04-03T02:08:27;3.67;;;1.20;;
78382;SDS011;67668;52.294;4.692;2023-04-03T02:10:52;1.80;;;0.93;;
78382;SDS011;67668;52.294;4.692;2023-04-03T02:13:18;6.30;;;1.27;;
78382;SDS011;67668;52.294;4.692;2023-04-03T02:15:44;5.15;;;1.10;;
78382;SDS011;67668;52.294;4.692;2023-04-03T02:18:11;3.03;;;0.80;;
78382;SDS011;67668;52.294;4.692;2023-04-03T02:20:37;3.63;;;0.80;;
78382;SDS011;67668;52.294;4.692;2023-04-03T02:23:03;1.92;;;0.93;;
78382;SDS011;67668;52.294;4.692;2023-04-03T02:25:32;2.60;;;1.00;;
78382;SDS011;67668;52.294;4.692;2023-04-03T02:27:58;3.13;;;1.00;;
78382;SDS011;67668;52.294;4.692;2023-04-03T02:30:24;3.38;;;0.82;;
78382;SDS011;67668;52.294;4.692;2023-04-03T02:32:49;2.15;;;1.00;;
78382;SDS011;67668;52.294;4.692;2023-04-03T02:35:14;1.40;;;0.50;;
78382;SDS011;67668;52.294;4.692;2023-04-03T02:37:40;3.65;;;0.90;;
78382;SDS011;67668;52.294;4.692;2023-04-03T02:40:06;4.53;;;0.80;;
78382;SDS011;67668;52.294;4.692;2023-04-03T02:42:32;4.13;;;0.77;;
78382;SDS011;67668;52.294;4.692;2023-04-03T02:44:58;2.88;;;0.98;;
78382;SDS011;67668;52.294;4.692;2023-04-03T02:47:26;2.05;;;0.93;;
78382;SDS011;67668;52.294;4.692;2023-04-03T02:49:52;2.30;;;0.95;;
78382;SDS011;67668;52.294;4.692;2023-04-03T02:52:18;1.42;;;0.60;;
78382;SDS011;67668;52.294;4.692;2023-04-03T02:54:44;3.80;;;0.80;;
78382;SDS011;67668;52.294;4.692;2023-04-03T02:57:10;3.10;;;1.03;;
78382;SDS011;67668;52.294;4.692;2023-04-03T02:59:36;1.83;;;0.80;;
78382;SDS011;67668;52.294;4.692;2023-04-03T03:02:02;4.50;;;1.00;;
78382;SDS011;67668;52.294;4.692;2023-04-03T03:04:28;5.53;;;1.10;;
78382;SDS011;67668;52.294;4.692;2023-04-03T03:06:53;3.80;;;1.10;;
78382;SDS011;67668;52.294;4.692;2023-04-03T03:09:19;2.00;;;0.80;;
78382;SDS011;67668;52.294;4.692;2023-04-03T03:11:44;2.72;;;0.70;;
78382;SDS011;67668;52.294;4.692;2023-04-03T03:14:10;2.42;;;0.77;;
78382;SDS011;67668;52.294;4.692;2023-04-03T03:16:35;4.65;;;1.25;;
78382;SDS011;67668;52.294;4.692;2023-04-03T03:19:00;4.38;;;0.77;;
78382;SDS011;67668;52.294;4.692;2023-04-03T03:21:26;4.68;;;0.98;;
78382;SDS011;67668;52.294;4.692;2023-04-03T03:23:51;2.58;;;1.25;;
78382;SDS011;67668;52.294;4.692;2023-04-03T03:26:17;2.15;;;0.80;;
78382;SDS011;67668;52.294;4.692;2023-04-03T03:28:42;4.55;;;0.95;;
78382;SDS011;67668;52.294;4.692;2023-04-03T03:31:08;2.70;;;0.93;;
78382;SDS011;67668;52.294;4.692;2023-04-03T03:33:33;5.30;;;1.30;;
78382;SDS011;67668;52.294;4.692;2023-04-03T03:35:59;2.35;;;0.82;;
78382;SDS011;67668;52.294;4.692;2023-04-03T03:40:50;3.17;;;0.90;;
78382;SDS011;67668;52.294;4.692;2023-04-03T03:45:42;4.85;;;1.10;;
78382;SDS011;67668;52.294;4.692;2023-04-03T03:48:07;3.35;;;0.98;;
78382;SDS011;67668;52.294;4.692;2023-04-03T03:50:33;4.40;;;1.20;;
78382;SDS011;67668;52.294;4.692;2023-04-03T03:52:59;2.33;;;1.00;;
78382;SDS011;67668;52.294;4.692;2023-04-03T03:55:24;5.10;;;1.25;;
78382;SDS011;67668;52.294;4.692;2023-04-03T03:57:50;4.68;;;0.93;;
78382;SDS011;67668;52.294;4.692;2023-04-03T04:00:15;3.38;;;0.95;;
78382;SDS011;67668;52.294;4.692;2023-04-03T04:02:41;2.47;;;1.10;;
78382;SDS011;67668;52.294;4.692;2023-04-03T04:05:07;2.42;;;1.00;;
78382;SDS011;67668;52.294;4.692;2023-04-03T04:07:33;3.10;;;0.90;;
78382;SDS011;67668;52.294;4.692;2023-04-03T04:09:58;2.13;;;1.27;;
78382;SDS011;67668;52.294;4.692;2023-04-03T04:12:23;2.83;;;0.93;;
78382;SDS011;67668;52.294;4.692;2023-04-03T04:14:49;4.65;;;1.58;;
78382;SDS011;67668;52.294;4.692;2023-04-03T04:17:14;3.17;;;1.43;;
78382;SDS011;67668;52.294;4.692;2023-04-03T04:19:40;4.22;;;1.05;;
78382;SDS011;67668;52.294;4.692;2023-04-03T04:22:05;3.00;;;0.80;;
78382;SDS011;67668;52.294;4.692;2023-04-03T04:24:31;3.50;;;1.50;;
78382;SDS011;67668;52.294;4.692;2023-04-03T04:26:56;2.17;;;0.70;;
78382;SDS011;67668;52.294;4.692;2023-04-03T04:29:22;3.42;;;1.20;;
78382;SDS011;67668;52.294;4.692;2023-04-03T04:31:47;1.58;;;0.80;;
78382;SDS011;67668;52.294;4.692;2023-04-03T04:34:12;4.43;;;1.20;;
78382;SDS011;67668;52.294;4.692;2023-04-03T04:36:38;3.55;;;0.93;;
78382;SDS011;67668;52.294;4.692;2023-04-03T04:39:04;5.07;;;1.15;;
78382;SDS011;67668;52.294;4.692;2023-04-03T04:41:30;2.42;;;1.02;;
78382;SDS011;67668;52.294;4.692;2023-04-03T04:43:56;2.05;;;0.75;;
78382;SDS011;67668;52.294;4.692;2023-04-03T04:46:22;3.38;;;1.20;;
78382;SDS011;67668;52.294;4.692;2023-04-03T04:48:47;2.88;;;1.00;;
78382;SDS011;67668;52.294;4.692;2023-04-03T04:51:13;2.72;;;1.20;;
78382;SDS011;67668;52.294;4.692;2023-04-03T04:53:39;3.88;;;1.02;;
78382;SDS011;67668;52.294;4.692;2023-04-03T04:56:04;7.30;;;1.43;;
78382;SDS011;67668;52.294;4.692;2023-04-03T04:58:30;7.68;;;1.63;;
78382;SDS011;67668;52.294;4.692;2023-04-03T05:00:59;2.80;;;1.10;;
78382;SDS011;67668;52.294;4.692;2023-04-03T05:03:25;3.63;;;1.00;;
78382;SDS011;67668;52.294;4.692;2023-04-03T05:05:51;2.77;;;1.00;;
78382;SDS011;67668;52.294;4.692;2023-04-03T05:08:16;2.17;;;1.20;;
78382;SDS011;67668;52.294;4.692;2023-04-03T05:10:41;5.03;;;1.25;;
78382;SDS011;67668;52.294;4.692;2023-04-03T05:13:07;3.60;;;0.95;;
78382;SDS011;67668;52.294;4.692;2023-04-03T05:15:33;4.68;;;1.42;;
78382;SDS011;67668;52.294;4.692;2023-04-03T05:17:58;3.50;;;1.02;;
78382;SDS011;67668;52.294;4.692;2023-04-03T05:20:24;3.85;;;1.05;;
78382;SDS011;67668;52.294;4.692;2023-04-03T05:22:49;4.15;;;1.40;;
78382;SDS011;67668;52.294;4.692;2023-04-03T05:25:15;4.07;;;1.07;;
78382;SDS011;67668;52.294;4.692;2023-04-03T05:27:40;4.75;;;1.15;;
78382;SDS011;67668;52.294;4.692;2023-04-03T05:30:06;4.10;;;1.17;;
78382;SDS011;67668;52.294;4.692;2023-04-03T05:32:32;2.85;;;1.23;;
78382;SDS011;67668;52.294;4.692;2023-04-03T05:34:57;4.35;;;1.20;;
78382;SDS011;67668;52.294;4.692;2023-04-03T05:37:23;1.60;;;0.97;;
78382;SDS011;67668;52.294;4.692;2023-04-03T05:39:48;4.40;;;1.70;;
78382;SDS011;67668;52.294;4.692;2023-04-03T05:42:15;4.47;;;1.00;;
78382;SDS011;67668;52.294;4.692;2023-04-03T05:44:40;3.58;;;1.58;;
78382;SDS011;67668;52.294;4.692;2023-04-03T05:47:06;2.40;;;1.08;;
78382;SDS011;67668;52.294;4.692;2023-04-03T05:49:32;5.47;;;1.63;;
78382;SDS011;67668;52.294;4.692;2023-04-03T05:51:57;1.73;;;0.90;;
78382;SDS011;67668;52.294;4.692;2023-04-03T05:54:23;2.73;;;1.60;;
78382;SDS011;67668;52.294;4.692;2023-04-03T05:56:53;4.70;;;1.10;;
78382;SDS011;67668;52.294;4.692;2023-04-03T05:59:19;3.30;;;0.93;;
78382;SDS011;67668;52.294;4.692;2023-04-03T06:01:45;5.25;;;1.55;;
78382;SDS011;67668;52.294;4.692;2023-04-03T06:09:19;5.18;;;1.40;;
78382;SDS011;67668;52.294;4.692;2023-04-03T06:11:46;4.70;;;1.52;;
78382;SDS011;67668;52.294;4.692;2023-04-03T06:14:12;2.75;;;0.98;;
78382;SDS011;67668;52.294;4.692;2023-04-03T06:16:37;3.00;;;1.20;;
78382;SDS011;67668;52.294;4.692;2023-04-03T06:19:04;5.15;;;1.80;;
78382;SDS011;67668;52.294;4.692;2023-04-03T06:21:31;3.70;;;1.27;;
78382;SDS011;67668;52.294;4.692;2023-04-03T06:23:57;4.85;;;1.02;;
78382;SDS011;67668;52.294;4.692;2023-04-03T06:26:22;3.22;;;1.27;;
78382;SDS011;67668;52.294;4.692;2023-04-03T06:28:48;8.15;;;1.27;;
78382;SDS011;67668;52.294;4.692;2023-04-03T06:31:14;2.83;;;1.30;;
78382;SDS011;67668;52.294;4.692;2023-04-03T06:33:39;3.83;;;1.35;;
78382;SDS011;67668;52.294;4.692;2023-04-03T06:36:05;3.75;;;1.10;;
78382;SDS011;67668;52.294;4.692;2023-04-03T06:38:32;4.72;;;1.17;;
78382;SDS011;67668;52.294;4.692;2023-04-03T06:40:58;5.93;;;1.48;;
78382;SDS011;67668;52.294;4.692;2023-04-03T06:43:23;4.32;;;1.27;;
78382;SDS011;67668;52.294;4.692;2023-04-03T06:45:49;4.47;;;1.20;;
78382;SDS011;67668;52.294;4.692;2023-04-03T06:48:15;2.55;;;1.10;;
78382;SDS011;67668;52.294;4.692;2023-04-03T06:50:41;6.00;;;1.73;;
78382;SDS011;67668;52.294;4.692;2023-04-03T06:53:06;2.75;;;1.05;;
78382;SDS011;67668;52.294;4.692;2023-04-03T06:55:32;6.13;;;1.23;;
78382;SDS011;67668;52.294;4.692;2023-04-03T06:57:57;4.03;;;1.10;;
78382;SDS011;67668;52.294;4.692;2023-04-03T07:00:23;3.22;;;0.98;;
78382;SDS011;67668;52.294;4.692;2023-04-03T07:02:49;4.63;;;1.27;;
78382;SDS011;67668;52.294;4.692;2023-04-03T07:05:15;6.03;;;1.20;;
78382;SDS011;67668;52.294;4.692;2023-04-03T07:07:40;4.90;;;0.90;;
78382;SDS011;67668;52.294;4.692;2023-04-03T07:10:06;8.23;;;1.70;;
78382;SDS011;67668;52.294;4.692;2023-04-03T07:12:32;6.70;;;1.40;;
78382;SDS011;67668;52.294;4.692;2023-04-03T07:14:58;6.63;;;1.15;;
78382;SDS011;67668;52.294;4.692;2023-04-03T07:17:23;5.20;;;1.42;;
78382;SDS011;67668;52.294;4.692;2023-04-03T07:19:50;3.38;;;1.05;;
78382;SDS011;67668;52.294;4.692;2023-04-03T07:22:16;3.17;;;1.25;;
78382;SDS011;67668;52.294;4.692;2023-04-03T07:24:42;6.47;;;1.48;;
78382;SDS011;67668;52.294;4.692;2023-04-03T07:27:07;5.57;;;1.27;;
78382;SDS011;67668;52.294;4.692;2023-04-03T07:29:33;3.35;;;0.93;;
78382;SDS011;67668;52.294;4.692;2023-04-03T07:32:00;3.92;;;1.27;;
78382;SDS011;67668;52.294;4.692;2023-04-03T07:34:25;2.33;;;1.00;;
78382;SDS011;67668;52.294;4.692;2023-04-03T07:36:51;3.90;;;1.02;;
78382;SDS011;67668;52.294;4.692;2023-04-03T07:39:16;4.30;;;1.02;;
78382;SDS011;67668;52.294;4.692;2023-04-03T07:41:42;3.70;;;1.23;;
78382;SDS011;67668;52.294;4.692;2023-04-03T07:44:07;4.95;;;0.60;;
78382;SDS011;67668;52.294;4.692;2023-04-03T07:46:35;3.08;;;1.02;;
78382;SDS011;67668;52.294;4.692;2023-04-03T07:49:00;3.13;;;1.35;;
78382;SDS011;67668;52.294;4.692;2023-04-03T07:51:26;2.88;;;1.05;;
78382;SDS011;67668;52.294;4.692;2023-04-03T07:53:53;5.80;;;1.02;;
78382;SDS011;67668;52.294;4.692;2023-04-03T07:56:19;6.25;;;0.98;;
78382;SDS011;67668;52.294;4.692;2023-04-03T07:58:45;5.15;;;0.90;;
78382;SDS011;67668;52.294;4.692;2023-04-03T08:01:11;3.58;;;1.38;;
78382;SDS011;67668;52.294;4.692;2023-04-03T08:03:36;4.47;;;0.85;;
78382;SDS011;67668;52.294;4.692;2023-04-03T08:06:04;3.40;;;1.25;;
78382;SDS011;67668;52.294;4.692;2023-04-03T08:08:32;3.08;;;1.05;;
78382;SDS011;67668;52.294;4.692;2023-04-03T08:10:58;2.22;;;0.82;;
78382;SDS011;67668;52.294;4.692;2023-04-03T08:13:25;7.82;;;0.90;;
78382;SDS011;67668;52.294;4.692;2023-04-03T08:18:16;5.95;;;1.50;;
78382;SDS011;67668;52.294;4.692;2023-04-03T08:20:43;3.80;;;0.80;;
78382;SDS011;67668;52.294;4.692;2023-04-03T08:25:41;2.40;;;0.70;;
78382;SDS011;67668;52.294;4.692;2023-04-03T08:28:07;2.10;;;0.85;;
78382;SDS011;67668;52.294;4.692;2023-04-03T08:30:33;2.60;;;0.70;;
78382;SDS011;67668;52.294;4.692;2023-04-03T08:33:02;4.65;;;0.98;;
78382;SDS011;67668;52.294;4.692;2023-04-03T08:35:28;3.95;;;1.00;;
78382;SDS011;67668;52.294;4.692;2023-04-03T08:40:20;3.78;;;1.00;;
78382;SDS011;67668;52.294;4.692;2023-04-03T08:48:12;2.15;;;0.70;;
78382;SDS011;67668;52.294;4.692;2023-04-03T08:50:41;3.03;;;0.63;;
78382;SDS011;67668;52.294;4.692;2023-04-03T08:53:18;5.63;;;1.20;;
78382;SDS011;67668;52.294;4.692;2023-04-03T08:55:47;6.45;;;1.02;;
78382;SDS011;67668;52.294;4.692;2023-04-03T08:58:16;3.17;;;0.52;;
78382;SDS011;67668;52.294;4.692;2023-04-03T09:03:15;3.97;;;0.73;;
78382;SDS011;67668;52.294;4.692;2023-04-03T09:13:57;2.88;;;0.57;;
78382;SDS011;67668;52.294;4.692;2023-04-03T09:22:09;3.22;;;0.50;;
78382;SDS011;67668;52.294;4.692;2023-04-03T09:24:42;2.97;;;0.57;;
78382;SDS011;67668;52.294;4.692;2023-04-03T09:27:10;0.85;;;0.40;;
78382;SDS011;67668;52.294;4.692;2023-04-03T09:29:41;2.25;;;0.63;;
78382;SDS011;67668;52.294;4.692;2023-04-03T09:32:28;1.13;;;0.35;;
78382;SDS011;67668;52.294;4.692;2023-04-03T09:37:35;2.42;;;0.60;;
78382;SDS011;67668;52.294;4.692;2023-04-03T09:40:04;1.50;;;0.55;;
78382;SDS011;67668;52.294;4.692;2023-04-03T09:42:31;4.75;;;0.52;;
78382;SDS011;67668;52.294;4.692;2023-04-03T09:44:59;2.78;;;0.70;;
78382;SDS011;67668;52.294;4.692;2023-04-03T09:47:33;4.03;;;0.50;;
78382;SDS011;67668;52.294;4.692;2023-04-03T09:52:43;1.38;;;0.45;;
78382;SDS011;67668;52.294;4.692;2023-04-03T09:55:14;1.83;;;0.50;;
78382;SDS011;67668;52.294;4.692;2023-04-03T09:58:21;1.50;;;0.60;;
78382;SDS011;67668;52.294;4.692;2023-04-03T10:00:59;4.40;;;1.70;;
78382;SDS011;67668;52.294;4.692;2023-04-03T10:06:04;2.25;;;0.47;;
78382;SDS011;67668;52.294;4.692;2023-04-03T10:09:02;1.63;;;0.60;;
78382;SDS011;67668;52.294;4.692;2023-04-03T10:11:30;2.35;;;0.50;;
78382;SDS011;67668;52.294;4.692;2023-04-03T10:13:57;2.97;;;0.50;;
78382;SDS011;67668;52.294;4.692;2023-04-03T10:16:35;1.67;;;0.60;;
78382;SDS011;67668;52.294;4.692;2023-04-03T10:41:07;2.70;;;0.40;;
78382;SDS011;67668;52.294;4.692;2023-04-03T10:43:52;2.03;;;0.52;;
78382;SDS011;67668;52.294;4.692;2023-04-03T10:51:51;1.35;;;0.43;;
78382;SDS011;67668;52.294;4.692;2023-04-03T10:54:39;1.90;;;0.50;;
78382;SDS011;67668;52.294;4.692;2023-04-03T10:57:11;2.00;;;0.60;;
78382;SDS011;67668;52.294;4.692;2023-04-03T10:59:44;0.40;;;0.25;;
78382;SDS011;67668;52.294;4.692;2023-04-03T11:02:25;2.85;;;0.30;;
78382;SDS011;67668;52.294;4.692;2023-04-03T11:04:57;1.85;;;0.40;;
78382;SDS011;67668;52.294;4.692;2023-04-03T11:07:33;2.53;;;0.60;;
78382;SDS011;67668;52.294;4.692;2023-04-03T11:10:06;2.47;;;0.35;;
78382;SDS011;67668;52.294;4.692;2023-04-03T11:12:43;3.75;;;0.40;;
78382;SDS011;67668;52.294;4.692;2023-04-03T11:15:12;0.75;;;0.30;;
78382;SDS011;67668;52.294;4.692;2023-04-03T11:17:43;2.22;;;0.30;;
78382;SDS011;67668;52.294;4.692;2023-04-03T11:22:53;2.08;;;0.30;;
78382;SDS011;67668;52.294;4.692;2023-04-03T11:25:25;1.48;;;0.40;;
78382;SDS011;67668;52.294;4.692;2023-04-03T11:28:02;1.35;;;0.38;;
78382;SDS011;67668;52.294;4.692;2023-04-03T11:38:46;3.75;;;0.52;;
78382;SDS011;67668;52.294;4.692;2023-04-03T11:41:14;1.42;;;0.32;;
78382;SDS011;67668;52.294;4.692;2023-04-03T11:43:41;0.93;;;0.20;;
78382;SDS011;67668;52.294;4.692;2023-04-03T11:46:20;1.38;;;0.25;;
78382;SDS011;67668;52.294;4.692;2023-04-03T11:48:47;1.07;;;0.40;;
78382;SDS011;67668;52.294;4.692;2023-04-03T11:53:42;1.90;;;0.45;;
78382;SDS011;67668;52.294;4.692;2023-04-03T12:01:43;1.02;;;0.30;;
78382;SDS011;67668;52.294;4.692;2023-04-03T12:04:12;1.67;;;0.20;;
78382;SDS011;67668;52.294;4.692;2023-04-03T12:17:49;2.67;;;0.28;;
78382;SDS011;67668;52.294;4.692;2023-04-03T12:23:34;3.35;;;0.43;;
78382;SDS011;67668;52.294;4.692;2023-04-03T12:26:21;1.00;;;0.17;;
78382;SDS011;67668;52.294;4.692;2023-04-03T12:28:51;1.45;;;0.60;;
78382;SDS011;67668;52.294;4.692;2023-04-03T12:31:19;3.13;;;0.70;;
78382;SDS011;67668;52.294;4.692;2023-04-03T12:39:33;0.90;;;0.47;;
78382;SDS011;67668;52.294;4.692;2023-04-03T12:45:22;1.23;;;0.30;;
78382;SDS011;67668;52.294;4.692;2023-04-03T12:47:51;1.60;;;0.30;;
78382;SDS011;67668;52.294;4.692;2023-04-03T12:50:27;0.45;;;0.20;;
78382;SDS011;67668;52.294;4.692;2023-04-03T12:53:02;2.05;;;0.60;;
78382;SDS011;67668;52.294;4.692;2023-04-03T12:55:30;1.23;;;0.35;;
78382;SDS011;67668;52.294;4.692;2023-04-03T12:57:55;1.00;;;0.47;;
78382;SDS011;67668;52.294;4.692;2023-04-03T13:00:25;4.60;;;0.50;;
78382;SDS011;67668;52.294;4.692;2023-04-03T13:02:51;2.00;;;0.60;;
78382;SDS011;67668;52.294;4.692;2023-04-03T13:05:18;1.57;;;0.37;;
78382;SDS011;67668;52.294;4.692;2023-04-03T13:07:47;1.38;;;0.45;;
78382;SDS011;67668;52.294;4.692;2023-04-03T13:12:46;2.22;;;0.52;;
78382;SDS011;67668;52.294;4.692;2023-04-03T13:17:45;1.58;;;0.40;;
78382;SDS011;67668;52.294;4.692;2023-04-03T13:20:30;1.33;;;0.40;;
78382;SDS011;67668;52.294;4.692;2023-04-03T13:23:01;3.38;;;0.93;;
78382;SDS011;67668;52.294;4.692;2023-04-03T13:25:31;1.55;;;0.40;;
78382;SDS011;67668;52.294;4.692;2023-04-03T13:27:59;3.95;;;0.73;;
78382;SDS011;67668;52.294;4.692;2023-04-03T13:32:56;1.60;;;0.38;;
78382;SDS011;67668;52.294;4.692;2023-04-03T13:37:58;1.67;;;0.40;;
78382;SDS011;67668;52.294;4.692;2023-04-03T13:40:26;0.95;;;0.63;;
78382;SDS011;67668;52.294;4.692;2023-04-03T13:43:03;1.58;;;0.30;;
78382;SDS011;67668;52.294;4.692;2023-04-03T13:45:53;1.52;;;0.47;;
78382;SDS011;67668;52.294;4.692;2023-04-03T13:48:34;1.65;;;0.52;;
78382;SDS011;67668;52.294;4.692;2023-04-03T13:51:03;2.10;;;0.50;;
78382;SDS011;67668;52.294;4.692;2023-04-03T13:53:32;0.85;;;0.30;;
78382;SDS011;67668;52.294;4.692;2023-04-03T13:56:07;1.48;;;0.63;;
78382;SDS011;67668;52.294;4.692;2023-04-03T13:58:35;1.23;;;0.50;;
78382;SDS011;67668;52.294;4.692;2023-04-03T14:01:10;1.92;;;0.50;;
78382;SDS011;67668;52.294;4.692;2023-04-03T14:04:01;1.85;;;0.60;;
78382;SDS011;67668;52.294;4.692;2023-04-03T14:06:34;1.02;;;0.38;;
78382;SDS011;67668;52.294;4.692;2023-04-03T14:09:00;1.95;;;0.45;;
78382;SDS011;67668;52.294;4.692;2023-04-03T14:11:28;1.33;;;0.45;;
78382;SDS011;67668;52.294;4.692;2023-04-03T14:13:55;1.40;;;0.47;;
78382;SDS011;67668;52.294;4.692;2023-04-03T14:16:26;1.60;;;0.47;;
78382;SDS011;67668;52.294;4.692;2023-04-03T14:18:55;1.92;;;0.50;;
78382;SDS011;67668;52.294;4.692;2023-04-03T14:21:21;1.95;;;0.80;;
78382;SDS011;67668;52.294;4.692;2023-04-03T14:23:48;2.92;;;0.60;;
78382;SDS011;67668;52.294;4.692;2023-04-03T14:26:19;1.00;;;0.40;;
78382;SDS011;67668;52.294;4.692;2023-04-03T14:28:47;1.65;;;0.43;;
78382;SDS011;67668;52.294;4.692;2023-04-03T14:31:15;2.00;;;0.68;;
78382;SDS011;67668;52.294;4.692;2023-04-03T14:33:41;1.27;;;0.40;;
78382;SDS011;67668;52.294;4.692;2023-04-03T14:36:11;1.58;;;0.50;;
78382;SDS011;67668;52.294;4.692;2023-04-03T14:38:36;2.75;;;0.82;;
78382;SDS011;67668;52.294;4.692;2023-04-03T14:41:02;2.25;;;0.60;;
78382;SDS011;67668;52.294;4.692;2023-04-03T14:43:28;4.38;;;0.80;;
78382;SDS011;67668;52.294;4.692;2023-04-03T14:45:53;2.10;;;1.00;;
78382;SDS011;67668;52.294;4.692;2023-04-03T14:48:22;1.38;;;0.52;;
78382;SDS011;67668;52.294;4.692;2023-04-03T14:50:51;5.35;;;1.15;;
78382;SDS011;67668;52.294;4.692;2023-04-03T14:53:17;3.40;;;0.68;;
78382;SDS011;67668;52.294;4.692;2023-04-03T14:55:48;1.08;;;0.60;;
78382;SDS011;67668;52.294;4.692;2023-04-03T14:58:15;2.05;;;0.85;;
78382;SDS011;67668;52.294;4.692;2023-04-03T15:00:41;1.73;;;0.60;;
78382;SDS011;67668;52.294;4.692;2023-04-03T15:03:11;2.67;;;0.90;;
78382;SDS011;67668;52.294;4.692;2023-04-03T15:05:38;2.45;;;0.65;;
78382;SDS011;67668;52.294;4.692;2023-04-03T15:08:03;2.33;;;0.60;;
78382;SDS011;67668;52.294;4.692;2023-04-03T15:10:29;2.08;;;0.50;;
78382;SDS011;67668;52.294;4.692;2023-04-03T15:12:56;3.88;;;0.80;;
78382;SDS011;67668;52.294;4.692;2023-04-03T15:15:22;3.38;;;0.82;;
78382;SDS011;67668;52.294;4.692;2023-04-03T15:17:53;1.30;;;0.55;;
78382;SDS011;67668;52.294;4.692;2023-04-03T15:20:21;2.03;;;0.70;;
78382;SDS011;67668;52.294;4.692;2023-04-03T15:22:48;1.25;;;0.40;;
78382;SDS011;67668;52.294;4.692;2023-04-03T15:25:14;2.15;;;0.70;;
78382;SDS011;67668;52.294;4.692;2023-04-03T15:27:40;1.95;;;0.40;;
78382;SDS011;67668;52.294;4.692;2023-04-03T15:30:07;1.23;;;0.50;;
78382;SDS011;67668;52.294;4.692;2023-04-03T15:32:37;1.65;;;0.47;;
78382;SDS011;67668;52.294;4.692;2023-04-03T15:35:03;1.38;;;0.55;;
78382;SDS011;67668;52.294;4.692;2023-04-03T15:37:30;4.20;;;0.88;;
78382;SDS011;67668;52.294;4.692;2023-04-03T15:39:56;3.15;;;0.95;;
78382;SDS011;67668;52.294;4.692;2023-04-03T15:42:21;2.58;;;0.68;;
78382;SDS011;67668;52.294;4.692;2023-04-03T15:44:47;2.28;;;0.80;;
78382;SDS011;67668;52.294;4.692;2023-04-03T15:47:12;2.47;;;0.77;;
78382;SDS011;67668;52.294;4.692;2023-04-03T15:49:38;2.65;;;0.60;;
78382;SDS011;67668;52.294;4.692;2023-04-03T15:52:04;2.55;;;0.75;;
78382;SDS011;67668;52.294;4.692;2023-04-03T15:54:29;1.98;;;0.80;;
78382;SDS011;67668;52.294;4.692;2023-04-03T15:56:55;3.67;;;1.00;;
78382;SDS011;67668;52.294;4.692;2023-04-03T15:59:20;2.63;;;0.60;;
78382;SDS011;67668;52.294;4.692;2023-04-03T16:01:47;2.15;;;0.75;;
78382;SDS011;67668;52.294;4.692;2023-04-03T16:04:15;2.20;;;0.55;;
78382;SDS011;67668;52.294;4.692;2023-04-03T16:06:42;5.45;;;0.50;;
78382;SDS011;67668;52.294;4.692;2023-04-03T16:09:08;6.68;;;0.90;;
78382;SDS011;67668;52.294;4.692;2023-04-03T16:11:34;1.45;;;0.50;;
78382;SDS011;67668;52.294;4.692;2023-04-03T16:14:01;3.08;;;0.57;;
78382;SDS011;67668;52.294;4.692;2023-04-03T16:16:26;1.45;;;0.50;;
78382;SDS011;67668;52.294;4.692;2023-04-03T16:18:53;3.70;;;0.85;;
78382;SDS011;67668;52.294;4.692;2023-04-03T16:21:20;1.92;;;0.40;;
78382;SDS011;67668;52.294;4.692;2023-04-03T16:23:46;3.00;;;0.70;;
78382;SDS011;67668;52.294;4.692;2023-04-03T16:26:12;2.30;;;0.70;;
78382;SDS011;67668;52.294;4.692;2023-04-03T16:28:38;4.43;;;1.10;;
78382;SDS011;67668;52.294;4.692;2023-04-03T16:31:04;6.70;;;0.93;;
78382;SDS011;67668;52.294;4.692;2023-04-03T16:33:31;2.45;;;0.90;;
78382;SDS011;67668;52.294;4.692;2023-04-03T16:35:56;2.53;;;0.65;;
78382;SDS011;67668;52.294;4.692;2023-04-03T16:38:22;3.03;;;0.50;;
78382;SDS011;67668;52.294;4.692;2023-04-03T16:40:47;4.43;;;0.63;;
78382;SDS011;67668;52.294;4.692;2023-04-03T16:43:14;3.00;;;0.60;;
78382;SDS011;67668;52.294;4.692;2023-04-03T16:45:40;2.75;;;0.80;;
78382;SDS011;67668;52.294;4.692;2023-04-03T16:48:05;2.08;;;0.70;;
78382;SDS011;67668;52.294;4.692;2023-04-03T16:50:31;3.97;;;0.70;;
78382;SDS011;67668;52.294;4.692;2023-04-03T16:52:58;2.00;;;0.50;;
78382;SDS011;67668;52.294;4.692;2023-04-03T16:55:23;3.15;;;0.75;;
78382;SDS011;67668;52.294;4.692;2023-04-03T16:57:49;2.17;;;0.43;;
78382;SDS011;67668;52.294;4.692;2023-04-03T17:00:14;2.05;;;0.75;;
78382;SDS011;67668;52.294;4.692;2023-04-03T17:02:40;2.97;;;0.57;;
78382;SDS011;67668;52.294;4.692;2023-04-03T17:05:06;1.67;;;0.63;;
78382;SDS011;67668;52.294;4.692;2023-04-03T17:07:32;3.30;;;0.98;;
78382;SDS011;67668;52.294;4.692;2023-04-03T17:09:57;3.38;;;0.80;;